createdAt,value
2022-08-02T00:00:00.066Z,0.00
2022-08-02T00:10:00.121Z,0.00
2022-08-02T00:20:00.131Z,0.00
2022-08-02T00:30:01.243Z,0.00
2022-08-02T00:40:01.004Z,0.00
2022-08-02T00:50:00.083Z,0.00
2022-08-02T01:00:00.106Z,0.00
2022-08-02T01:10:00.121Z,0.00
2022-08-02T01:20:01.340Z,0.00
2022-08-02T01:30:00.093Z,0.00
2022-08-02T01:40:01.199Z,0.00
2022-08-02T01:50:00.082Z,0.00
2022-08-02T02:00:00.129Z,0.00
2022-08-02T02:10:00.088Z,0.00
2022-08-02T02:20:00.082Z,0.00
2022-08-02T02:30:00.115Z,0.00
2022-08-02T02:40:00.120Z,0.00
2022-08-02T02:50:00.130Z,0.23
2022-08-02T03:00:00.106Z,1.25
2022-08-02T03:10:00.092Z,7.92
2022-08-02T03:20:00.094Z,32.08
2022-08-02T03:30:01.044Z,77.50
2022-08-02T03:40:00.108Z,165.00
2022-08-02T03:50:00.135Z,274.17
2022-08-02T04:00:00.131Z,492.08
2022-08-02T04:10:01.391Z,504.17
2022-08-02T04:20:00.152Z,596.67
2022-08-02T04:30:00.118Z,788.75
2022-08-02T04:40:00.122Z,445.00
2022-08-02T04:50:00.114Z,1192.08
2022-08-02T05:00:01.505Z,1709.58
2022-08-02T05:10:00.102Z,1615.42
2022-08-02T05:20:00.139Z,771.67
2022-08-02T05:30:00.128Z,1425.00
2022-08-02T05:40:00.934Z,1527.08
2022-08-02T05:50:00.126Z,1582.92
2022-08-02T06:00:00.111Z,1601.25
2022-08-02T06:10:00.123Z,1887.92
2022-08-02T06:20:00.141Z,1986.67
2022-08-02T06:30:00.127Z,2153.75
2022-08-02T06:40:00.107Z,2209.17
2022-08-02T06:50:00.391Z,2294.58
2022-08-02T07:00:00.095Z,2309.58
2022-08-02T07:10:01.073Z,1115.00
2022-08-02T07:20:00.148Z,1965.83
2022-08-02T07:30:00.106Z,1817.92
2022-08-02T07:40:00.104Z,1921.25
2022-08-02T07:50:00.155Z,1875.83
2022-08-02T08:00:00.103Z,1745.00
2022-08-02T08:10:00.110Z,955.00
2022-08-02T08:20:00.147Z,2000.83
2022-08-02T08:30:00.087Z,2172.50
2022-08-02T08:40:00.144Z,2241.67
2022-08-02T08:50:00.131Z,2683.75
2022-08-02T09:00:00.110Z,3029.17
2022-08-02T09:10:00.125Z,3321.25
2022-08-02T09:20:00.096Z,2989.58
2022-08-02T09:30:11.795Z,3937.08
2022-08-02T09:40:00.157Z,3142.50
2022-08-02T09:50:00.140Z,3415.42
2022-08-02T10:00:00.123Z,3499.58
2022-08-02T10:10:00.166Z,4170.83
2022-08-02T10:20:04.082Z,4583.75
2022-08-02T10:30:00.151Z,6044.17
2022-08-02T10:40:00.124Z,7951.25
2022-08-02T10:50:00.294Z,30997.50
2022-08-02T11:00:00.122Z,35720.83
2022-08-02T11:10:00.109Z,36206.67
2022-08-02T11:20:00.129Z,35053.33
2022-08-02T11:30:00.125Z,36075.00
2022-08-02T11:40:00.114Z,36090.00
2022-08-02T11:50:00.111Z,35382.50
2022-08-02T12:00:00.121Z,35948.33
2022-08-02T12:10:00.134Z,36093.33
2022-08-02T12:20:00.128Z,36266.67
2022-08-02T12:30:00.128Z,35996.67
2022-08-02T12:40:00.134Z,36553.33
2022-08-02T12:50:00.236Z,36800.83
2022-08-02T13:00:00.112Z,36862.50
2022-08-02T13:10:00.434Z,34346.67
2022-08-02T13:20:00.086Z,30280.83
2022-08-02T13:30:00.128Z,35840.00
2022-08-02T13:40:20.339Z,34850.83
2022-08-02T13:50:01.205Z,34176.67
2022-08-02T14:00:00.154Z,33677.50
2022-08-02T14:10:00.107Z,33775.83
2022-08-02T14:20:00.131Z,27294.58
2022-08-02T14:30:00.150Z,21146.67
2022-08-02T14:40:01.126Z,18250.42
2022-08-02T14:50:00.218Z,22645.42
2022-08-02T15:00:00.123Z,26827.92
2022-08-02T15:10:00.123Z,23023.33
2022-08-02T15:20:03.047Z,21319.58
2022-08-02T15:30:00.685Z,13491.67
2022-08-02T15:40:01.211Z,9269.17
2022-08-02T15:50:00.109Z,10810.42
2022-08-02T16:00:00.143Z,8758.33
2022-08-02T16:10:00.119Z,10679.17
2022-08-02T16:20:00.125Z,8837.08
2022-08-02T16:30:00.124Z,6863.75
2022-08-02T16:40:00.163Z,7204.58
2022-08-02T16:50:06.222Z,7108.33
2022-08-02T17:00:00.193Z,7480.42
2022-08-02T17:10:01.735Z,5264.58
2022-08-02T17:20:01.398Z,4273.33
2022-08-02T17:30:00.157Z,3529.58
2022-08-02T17:40:00.143Z,4615.42
2022-08-02T17:50:00.282Z,2384.17
2022-08-02T18:00:03.792Z,1701.67
2022-08-02T18:10:00.103Z,1386.67
2022-08-02T18:20:06.041Z,907.92
2022-08-02T18:30:04.304Z,559.58
2022-08-02T18:40:00.116Z,312.92
2022-08-02T18:50:00.227Z,160.00
2022-08-02T19:00:02.590Z,75.42
2022-08-02T19:10:00.136Z,27.92
2022-08-02T19:20:00.142Z,8.60
2022-08-02T19:30:00.167Z,2.15
2022-08-02T19:40:00.115Z,0.45
2022-08-02T19:50:00.160Z,0.00
2022-08-02T20:00:00.173Z,0.00
2022-08-02T20:10:00.129Z,0.00
2022-08-02T20:20:00.145Z,0.00
2022-08-02T20:30:00.139Z,0.00
2022-08-02T20:40:00.120Z,0.00
2022-08-02T20:50:00.181Z,0.00
2022-08-02T21:00:00.130Z,0.00
2022-08-02T21:10:00.109Z,0.00
2022-08-02T21:20:01.460Z,0.00
2022-08-02T21:30:00.109Z,0.00
2022-08-02T21:40:00.118Z,0.00
2022-08-02T21:50:09.058Z,0.00
2022-08-02T22:00:00.111Z,0.00
2022-08-02T22:10:00.150Z,0.00
2022-08-02T22:20:00.131Z,0.00
2022-08-02T22:30:00.089Z,0.00
2022-08-02T22:40:05.908Z,0.00
2022-08-02T22:50:00.210Z,0.00
2022-08-02T23:00:00.220Z,0.00
2022-08-02T23:10:00.119Z,0.00
2022-08-02T23:20:00.125Z,0.00
2022-08-02T23:30:00.126Z,0.00
2022-08-02T23:40:00.136Z,0.00
2022-08-02T23:50:00.274Z,0.00
